sensor_id;sensor_type;location;lat;lon;timestamp;temperature;humidity
8422;DHT22;4248;48.196;10.924;2023-04-25T00:00:44;7.00;50.50
8422;DHT22;4248;48.196;10.924;2023-04-25T00:03:10;7.00;50.80
8422;DHT22;4248;48.196;10.924;2023-04-25T00:05:36;7.00;50.70
8422;DHT22;4248;48.196;10.924;2023-04-25T00:08:03;7.00;50.50
8422;DHT22;4248;48.196;10.924;2023-04-25T00:10:29;7.00;50.30
8422;DHT22;4248;48.196;10.924;2023-04-25T00:12:54;7.00;50.70
8422;DHT22;4248;48.196;10.924;2023-04-25T00:15:20;6.90;50.80
8422;DHT22;4248;48.196;10.924;2023-04-25T00:17:46;6.80;51.30
8422;DHT22;4248;48.196;10.924;2023-04-25T00:20:12;6.70;51.70
8422;DHT22;4248;48.196;10.924;2023-04-25T00:22:37;6.60;52.20
8422;DHT22;4248;48.196;10.924;2023-04-25T00:25:07;6.40;52.60
8422;DHT22;4248;48.196;10.924;2023-04-25T00:27:32;6.30;53.00
8422;DHT22;4248;48.196;10.924;2023-04-25T00:29:58;6.20;53.30
8422;DHT22;4248;48.196;10.924;2023-04-25T00:32:23;6.10;53.60
8422;DHT22;4248;48.196;10.924;2023-04-25T00:34:49;6.00;53.90
8422;DHT22;4248;48.196;10.924;2023-04-25T00:37:15;5.90;54.10
8422;DHT22;4248;48.196;10.924;2023-04-25T00:39:41;5.80;54.20
8422;DHT22;4248;48.196;10.924;2023-04-25T00:42:07;5.70;54.40
8422;DHT22;4248;48.196;10.924;2023-04-25T00:44:33;5.60;54.60
8422;DHT22;4248;48.196;10.924;2023-04-25T00:47:01;5.50;54.70
8422;DHT22;4248;48.196;10.924;2023-04-25T00:49:27;5.40;54.90
8422;DHT22;4248;48.196;10.924;2023-04-25T00:51:53;5.40;56.10
8422;DHT22;4248;48.196;10.924;2023-04-25T00:54:19;5.30;55.00
8422;DHT22;4248;48.196;10.924;2023-04-25T00:56:45;5.30;55.20
8422;DHT22;4248;48.196;10.924;2023-04-25T00:59:10;5.20;55.10
8422;DHT22;4248;48.196;10.924;2023-04-25T01:01:36;5.20;55.00
8422;DHT22;4248;48.196;10.924;2023-04-25T01:04:04;5.30;55.00
8422;DHT22;4248;48.196;10.924;2023-04-25T01:06:30;5.30;54.70
8422;DHT22;4248;48.196;10.924;2023-04-25T01:08:57;5.40;54.60
8422;DHT22;4248;48.196;10.924;2023-04-25T01:11:24;5.50;54.40
8422;DHT22;4248;48.196;10.924;2023-04-25T01:13:50;5.60;54.20
8422;DHT22;4248;48.196;10.924;2023-04-25T01:16:15;5.60;54.00
8422;DHT22;4248;48.196;10.924;2023-04-25T01:18:41;5.70;53.80
8422;DHT22;4248;48.196;10.924;2023-04-25T01:21:12;5.70;53.90
8422;DHT22;4248;48.196;10.924;2023-04-25T01:23:41;5.60;54.00
8422;DHT22;4248;48.196;10.924;2023-04-25T01:26:11;5.70;54.20
8422;DHT22;4248;48.196;10.924;2023-04-25T01:28:38;5.70;53.80
8422;DHT22;4248;48.196;10.924;2023-04-25T01:31:06;5.80;53.60
8422;DHT22;4248;48.196;10.924;2023-04-25T01:33:32;5.90;53.40
8422;DHT22;4248;48.196;10.924;2023-04-25T01:35:58;5.90;53.30
8422;DHT22;4248;48.196;10.924;2023-04-25T01:38:23;5.90;53.30
8422;DHT22;4248;48.196;10.924;2023-04-25T01:40:50;6.00;53.00
8422;DHT22;4248;48.196;10.924;2023-04-25T01:43:16;6.10;52.80
8422;DHT22;4248;48.196;10.924;2023-04-25T01:45:42;6.00;52.80
8422;DHT22;4248;48.196;10.924;2023-04-25T01:48:09;6.10;53.50
8422;DHT22;4248;48.196;10.924;2023-04-25T01:50:35;6.10;53.00
8422;DHT22;4248;48.196;10.924;2023-04-25T01:53:01;6.10;53.10
8422;DHT22;4248;48.196;10.924;2023-04-25T01:55:27;6.20;53.00
8422;DHT22;4248;48.196;10.924;2023-04-25T01:57:53;6.30;52.70
8422;DHT22;4248;48.196;10.924;2023-04-25T02:00:19;6.40;52.60
8422;DHT22;4248;48.196;10.924;2023-04-25T02:02:44;6.50;52.30
8422;DHT22;4248;48.196;10.924;2023-04-25T02:05:10;6.60;52.00
8422;DHT22;4248;48.196;10.924;2023-04-25T02:07:35;6.70;51.80
8422;DHT22;4248;48.196;10.924;2023-04-25T02:10:01;6.80;51.70
8422;DHT22;4248;48.196;10.924;2023-04-25T02:12:28;6.80;51.80
8422;DHT22;4248;48.196;10.924;2023-04-25T02:14:53;6.90;51.90
8422;DHT22;4248;48.196;10.924;2023-04-25T02:17:19;6.90;51.90
8422;DHT22;4248;48.196;10.924;2023-04-25T02:19:46;7.00;51.80
8422;DHT22;4248;48.196;10.924;2023-04-25T02:22:12;7.10;51.90
8422;DHT22;4248;48.196;10.924;2023-04-25T02:24:38;7.20;52.00
8422;DHT22;4248;48.196;10.924;2023-04-25T02:27:03;7.20;52.10
8422;DHT22;4248;48.196;10.924;2023-04-25T02:29:29;7.40;52.30
8422;DHT22;4248;48.196;10.924;2023-04-25T02:31:55;7.40;52.40
8422;DHT22;4248;48.196;10.924;2023-04-25T02:34:21;7.40;52.70
8422;DHT22;4248;48.196;10.924;2023-04-25T02:36:48;7.40;52.80
8422;DHT22;4248;48.196;10.924;2023-04-25T02:39:16;7.40;52.90
8422;DHT22;4248;48.196;10.924;2023-04-25T02:41:42;7.40;53.00
8422;DHT22;4248;48.196;10.924;2023-04-25T02:44:07;7.40;52.90
8422;DHT22;4248;48.196;10.924;2023-04-25T02:46:33;7.50;52.90
8422;DHT22;4248;48.196;10.924;2023-04-25T02:48:58;7.40;52.70
8422;DHT22;4248;48.196;10.924;2023-04-25T02:51:24;7.40;53.10
8422;DHT22;4248;48.196;10.924;2023-04-25T02:53:50;7.30;53.00
8422;DHT22;4248;48.196;10.924;2023-04-25T02:56:15;7.30;53.30
8422;DHT22;4248;48.196;10.924;2023-04-25T02:58:41;7.20;53.30
8422;DHT22;4248;48.196;10.924;2023-04-25T03:01:06;7.10;53.70
8422;DHT22;4248;48.196;10.924;2023-04-25T03:03:32;7.20;53.60
8422;DHT22;4248;48.196;10.924;2023-04-25T03:05:58;7.20;53.60
8422;DHT22;4248;48.196;10.924;2023-04-25T03:08:23;7.10;53.60
8422;DHT22;4248;48.196;10.924;2023-04-25T03:10:50;7.10;53.60
8422;DHT22;4248;48.196;10.924;2023-04-25T03:13:17;7.10;53.40
8422;DHT22;4248;48.196;10.924;2023-04-25T03:15:43;7.20;53.30
8422;DHT22;4248;48.196;10.924;2023-04-25T03:18:09;7.10;53.30
8422;DHT22;4248;48.196;10.924;2023-04-25T03:20:34;7.10;53.50
8422;DHT22;4248;48.196;10.924;2023-04-25T03:23:00;7.10;53.40
8422;DHT22;4248;48.196;10.924;2023-04-25T03:25:26;7.10;53.30
8422;DHT22;4248;48.196;10.924;2023-04-25T03:27:51;7.20;53.20
8422;DHT22;4248;48.196;10.924;2023-04-25T03:30:17;7.10;53.00
8422;DHT22;4248;48.196;10.924;2023-04-25T03:32:42;7.20;53.00
8422;DHT22;4248;48.196;10.924;2023-04-25T03:35:08;7.10;53.00
8422;DHT22;4248;48.196;10.924;2023-04-25T03:37:34;7.10;53.30
8422;DHT22;4248;48.196;10.924;2023-04-25T03:40:00;7.00;53.20
8422;DHT22;4248;48.196;10.924;2023-04-25T03:42:25;7.00;53.30
8422;DHT22;4248;48.196;10.924;2023-04-25T03:44:51;7.00;53.20
8422;DHT22;4248;48.196;10.924;2023-04-25T03:47:17;7.00;53.80
8422;DHT22;4248;48.196;10.924;2023-04-25T03:49:42;6.90;53.70
8422;DHT22;4248;48.196;10.924;2023-04-25T03:52:08;6.80;53.90
8422;DHT22;4248;48.196;10.924;2023-04-25T03:54:34;6.80;54.10
8422;DHT22;4248;48.196;10.924;2023-04-25T03:56:59;6.70;54.20
8422;DHT22;4248;48.196;10.924;2023-04-25T03:59:25;6.80;54.20
8422;DHT22;4248;48.196;10.924;2023-04-25T04:01:51;6.80;54.20
8422;DHT22;4248;48.196;10.924;2023-04-25T04:04:17;6.80;54.10
8422;DHT22;4248;48.196;10.924;2023-04-25T04:06:43;6.80;54.00
8422;DHT22;4248;48.196;10.924;2023-04-25T04:09:08;6.90;53.80
8422;DHT22;4248;48.196;10.924;2023-04-25T04:11:37;6.90;53.80
8422;DHT22;4248;48.196;10.924;2023-04-25T04:14:04;7.00;53.70
8422;DHT22;4248;48.196;10.924;2023-04-25T04:16:30;7.10;53.40
8422;DHT22;4248;48.196;10.924;2023-04-25T04:18:56;7.10;53.50
8422;DHT22;4248;48.196;10.924;2023-04-25T04:21:22;7.10;53.50
8422;DHT22;4248;48.196;10.924;2023-04-25T04:23:47;7.20;53.60
8422;DHT22;4248;48.196;10.924;2023-04-25T04:26:14;7.10;53.80
8422;DHT22;4248;48.196;10.924;2023-04-25T04:28:42;7.10;53.90
8422;DHT22;4248;48.196;10.924;2023-04-25T04:31:08;7.20;54.00
8422;DHT22;4248;48.196;10.924;2023-04-25T04:33:34;7.10;53.90
8422;DHT22;4248;48.196;10.924;2023-04-25T04:36:00;7.10;54.00
8422;DHT22;4248;48.196;10.924;2023-04-25T04:38:28;7.10;55.20
8422;DHT22;4248;48.196;10.924;2023-04-25T04:40:54;7.20;54.40
8422;DHT22;4248;48.196;10.924;2023-04-25T04:43:20;7.20;54.50
8422;DHT22;4248;48.196;10.924;2023-04-25T04:45:45;7.20;54.30
8422;DHT22;4248;48.196;10.924;2023-04-25T04:48:11;7.40;54.10
8422;DHT22;4248;48.196;10.924;2023-04-25T04:50:39;7.40;53.90
8422;DHT22;4248;48.196;10.924;2023-04-25T04:53:05;7.50;53.90
8422;DHT22;4248;48.196;10.924;2023-04-25T04:55:31;7.50;53.90
8422;DHT22;4248;48.196;10.924;2023-04-25T04:57:56;7.50;53.70
8422;DHT22;4248;48.196;10.924;2023-04-25T05:00:22;7.50;53.80
8422;DHT22;4248;48.196;10.924;2023-04-25T05:02:48;7.60;53.80
8422;DHT22;4248;48.196;10.924;2023-04-25T05:05:13;7.60;53.80
8422;DHT22;4248;48.196;10.924;2023-04-25T05:07:39;7.60;53.90
8422;DHT22;4248;48.196;10.924;2023-04-25T05:10:05;7.50;54.30
8422;DHT22;4248;48.196;10.924;2023-04-25T05:12:31;7.60;54.30
8422;DHT22;4248;48.196;10.924;2023-04-25T05:14:57;7.60;54.30
8422;DHT22;4248;48.196;10.924;2023-04-25T05:17:22;7.60;54.60
8422;DHT22;4248;48.196;10.924;2023-04-25T05:19:48;7.50;54.80
8422;DHT22;4248;48.196;10.924;2023-04-25T05:22:13;7.50;55.00
8422;DHT22;4248;48.196;10.924;2023-04-25T05:24:39;7.50;54.80
8422;DHT22;4248;48.196;10.924;2023-04-25T05:27:05;7.60;54.80
8422;DHT22;4248;48.196;10.924;2023-04-25T05:29:31;7.70;54.50
8422;DHT22;4248;48.196;10.924;2023-04-25T05:31:56;7.80;54.50
8422;DHT22;4248;48.196;10.924;2023-04-25T05:34:22;7.80;54.30
8422;DHT22;4248;48.196;10.924;2023-04-25T05:36:47;8.00;53.90
8422;DHT22;4248;48.196;10.924;2023-04-25T05:39:15;8.10;53.50
8422;DHT22;4248;48.196;10.924;2023-04-25T05:41:42;8.30;53.40
8422;DHT22;4248;48.196;10.924;2023-04-25T05:44:07;8.30;53.30
8422;DHT22;4248;48.196;10.924;2023-04-25T05:46:33;8.40;53.30
8422;DHT22;4248;48.196;10.924;2023-04-25T05:48:58;8.50;53.20
8422;DHT22;4248;48.196;10.924;2023-04-25T05:51:24;8.60;53.30
8422;DHT22;4248;48.196;10.924;2023-04-25T05:53:50;8.60;53.20
8422;DHT22;4248;48.196;10.924;2023-04-25T05:56:15;8.70;53.20
8422;DHT22;4248;48.196;10.924;2023-04-25T05:58:41;8.70;53.30
8422;DHT22;4248;48.196;10.924;2023-04-25T06:01:06;8.70;53.40
8422;DHT22;4248;48.196;10.924;2023-04-25T06:03:32;8.70;53.50
8422;DHT22;4248;48.196;10.924;2023-04-25T06:05:58;8.80;53.30
8422;DHT22;4248;48.196;10.924;2023-04-25T06:08:23;8.90;53.10
8422;DHT22;4248;48.196;10.924;2023-04-25T06:10:49;8.90;53.00
8422;DHT22;4248;48.196;10.924;2023-04-25T06:13:15;9.00;53.00
8422;DHT22;4248;48.196;10.924;2023-04-25T06:15:40;9.00;53.00
8422;DHT22;4248;48.196;10.924;2023-04-25T06:18:07;9.00;53.40
8422;DHT22;4248;48.196;10.924;2023-04-25T06:20:32;9.00;53.40
8422;DHT22;4248;48.196;10.924;2023-04-25T06:22:58;9.30;53.00
8422;DHT22;4248;48.196;10.924;2023-04-25T06:25:23;9.50;52.30
8422;DHT22;4248;48.196;10.924;2023-04-25T06:27:49;10.00;51.60
8422;DHT22;4248;48.196;10.924;2023-04-25T06:30:15;10.10;51.80
8422;DHT22;4248;48.196;10.924;2023-04-25T06:32:41;10.10;51.70
8422;DHT22;4248;48.196;10.924;2023-04-25T06:35:07;10.40;51.80
8422;DHT22;4248;48.196;10.924;2023-04-25T06:37:33;11.10;50.00
8422;DHT22;4248;48.196;10.924;2023-04-25T06:39:58;12.90;41.80
8422;DHT22;4248;48.196;10.924;2023-04-25T06:42:24;14.20;35.90
8422;DHT22;4248;48.196;10.924;2023-04-25T06:44:50;13.20;38.50
8422;DHT22;4248;48.196;10.924;2023-04-25T06:47:15;13.00;39.80
8422;DHT22;4248;48.196;10.924;2023-04-25T06:49:41;13.60;37.40
8422;DHT22;4248;48.196;10.924;2023-04-25T06:52:07;12.80;40.10
8422;DHT22;4248;48.196;10.924;2023-04-25T06:54:33;12.30;42.50
8422;DHT22;4248;48.196;10.924;2023-04-25T06:56:59;11.90;42.70
8422;DHT22;4248;48.196;10.924;2023-04-25T06:59:26;11.40;42.50
8422;DHT22;4248;48.196;10.924;2023-04-25T07:01:52;11.20;43.60
8422;DHT22;4248;48.196;10.924;2023-04-25T07:04:17;10.90;44.00
8422;DHT22;4248;48.196;10.924;2023-04-25T07:06:43;10.40;45.50
8422;DHT22;4248;48.196;10.924;2023-04-25T07:09:09;10.20;46.30
8422;DHT22;4248;48.196;10.924;2023-04-25T07:11:38;10.00;48.10
8422;DHT22;4248;48.196;10.924;2023-04-25T07:14:03;9.80;47.90
8422;DHT22;4248;48.196;10.924;2023-04-25T07:16:29;9.80;48.20
8422;DHT22;4248;48.196;10.924;2023-04-25T07:18:54;10.10;47.20
8422;DHT22;4248;48.196;10.924;2023-04-25T07:21:20;10.40;47.40
8422;DHT22;4248;48.196;10.924;2023-04-25T07:23:46;10.90;47.00
8422;DHT22;4248;48.196;10.924;2023-04-25T07:26:12;11.30;45.40
8422;DHT22;4248;48.196;10.924;2023-04-25T07:28:37;11.60;44.50
8422;DHT22;4248;48.196;10.924;2023-04-25T07:31:03;11.40;43.40
8422;DHT22;4248;48.196;10.924;2023-04-25T07:33:29;10.90;43.80
8422;DHT22;4248;48.196;10.924;2023-04-25T07:35:55;10.70;44.00
8422;DHT22;4248;48.196;10.924;2023-04-25T07:38:21;10.70;44.70
8422;DHT22;4248;48.196;10.924;2023-04-25T07:40:50;10.70;44.80
8422;DHT22;4248;48.196;10.924;2023-04-25T07:43:15;10.70;45.30
8422;DHT22;4248;48.196;10.924;2023-04-25T07:45:46;11.00;45.10
8422;DHT22;4248;48.196;10.924;2023-04-25T07:48:16;11.20;44.40
8422;DHT22;4248;48.196;10.924;2023-04-25T07:50:42;11.30;44.40
8422;DHT22;4248;48.196;10.924;2023-04-25T07:53:07;11.50;44.20
8422;DHT22;4248;48.196;10.924;2023-04-25T07:55:34;11.80;44.00
8422;DHT22;4248;48.196;10.924;2023-04-25T07:57:59;12.10;43.20
8422;DHT22;4248;48.196;10.924;2023-04-25T08:00:25;12.20;41.60
8422;DHT22;4248;48.196;10.924;2023-04-25T08:02:50;12.20;41.10
8422;DHT22;4248;48.196;10.924;2023-04-25T08:05:16;12.30;41.70
8422;DHT22;4248;48.196;10.924;2023-04-25T08:07:42;12.40;41.80
8422;DHT22;4248;48.196;10.924;2023-04-25T08:10:09;12.30;41.00
8422;DHT22;4248;48.196;10.924;2023-04-25T08:12:34;12.10;40.30
8422;DHT22;4248;48.196;10.924;2023-04-25T08:15:00;12.20;40.50
8422;DHT22;4248;48.196;10.924;2023-04-25T08:17:25;12.50;40.70
8422;DHT22;4248;48.196;10.924;2023-04-25T08:19:51;12.90;39.90
8422;DHT22;4248;48.196;10.924;2023-04-25T08:22:17;13.20;38.90
8422;DHT22;4248;48.196;10.924;2023-04-25T08:24:42;13.50;36.60
8422;DHT22;4248;48.196;10.924;2023-04-25T08:27:09;13.20;36.30
8422;DHT22;4248;48.196;10.924;2023-04-25T08:29:35;13.20;35.70
8422;DHT22;4248;48.196;10.924;2023-04-25T08:32:00;13.00;35.70
8422;DHT22;4248;48.196;10.924;2023-04-25T08:34:26;13.00;35.80
8422;DHT22;4248;48.196;10.924;2023-04-25T08:36:52;13.00;36.10
8422;DHT22;4248;48.196;10.924;2023-04-25T08:39:17;13.00;36.10
8422;DHT22;4248;48.196;10.924;2023-04-25T08:41:43;13.10;34.80
8422;DHT22;4248;48.196;10.924;2023-04-25T08:44:13;13.00;33.80
8422;DHT22;4248;48.196;10.924;2023-04-25T08:46:40;13.10;33.90
8422;DHT22;4248;48.196;10.924;2023-04-25T08:49:07;13.30;32.70
8422;DHT22;4248;48.196;10.924;2023-04-25T08:51:36;13.10;32.90
8422;DHT22;4248;48.196;10.924;2023-04-25T08:54:11;13.20;33.20
8422;DHT22;4248;48.196;10.924;2023-04-25T08:56:43;13.00;30.20
8422;DHT22;4248;48.196;10.924;2023-04-25T08:59:11;13.00;31.10
8422;DHT22;4248;48.196;10.924;2023-04-25T09:01:36;13.10;30.70
8422;DHT22;4248;48.196;10.924;2023-04-25T09:04:02;13.60;30.20
8422;DHT22;4248;48.196;10.924;2023-04-25T09:06:32;13.70;28.70
8422;DHT22;4248;48.196;10.924;2023-04-25T09:09:06;13.50;28.60
8422;DHT22;4248;48.196;10.924;2023-04-25T09:11:34;13.40;29.50
8422;DHT22;4248;48.196;10.924;2023-04-25T09:14:12;13.50;29.80
8422;DHT22;4248;48.196;10.924;2023-04-25T09:19:29;13.00;29.30
8422;DHT22;4248;48.196;10.924;2023-04-25T09:21:56;13.00;31.20
8422;DHT22;4248;48.196;10.924;2023-04-25T09:26:57;13.00;30.40
8422;DHT22;4248;48.196;10.924;2023-04-25T09:29:34;13.10;30.40
8422;DHT22;4248;48.196;10.924;2023-04-25T09:32:14;13.20;30.50
8422;DHT22;4248;48.196;10.924;2023-04-25T09:34:42;13.20;30.50
8422;DHT22;4248;48.196;10.924;2023-04-25T09:37:09;13.00;30.40
8422;DHT22;4248;48.196;10.924;2023-04-25T09:39:37;13.20;30.60
8422;DHT22;4248;48.196;10.924;2023-04-25T09:42:04;13.20;30.10
8422;DHT22;4248;48.196;10.924;2023-04-25T09:44:30;12.80;30.50
8422;DHT22;4248;48.196;10.924;2023-04-25T09:46:55;12.30;31.70
8422;DHT22;4248;48.196;10.924;2023-04-25T09:49:21;11.70;33.00
8422;DHT22;4248;48.196;10.924;2023-04-25T09:51:59;11.20;34.40
8422;DHT22;4248;48.196;10.924;2023-04-25T09:54:26;10.60;36.40
8422;DHT22;4248;48.196;10.924;2023-04-25T09:56:52;10.30;37.80
8422;DHT22;4248;48.196;10.924;2023-04-25T09:59:22;10.10;38.30
8422;DHT22;4248;48.196;10.924;2023-04-25T10:01:49;10.00;37.90
8422;DHT22;4248;48.196;10.924;2023-04-25T10:04:19;10.10;37.80
8422;DHT22;4248;48.196;10.924;2023-04-25T10:06:48;10.30;37.20
8422;DHT22;4248;48.196;10.924;2023-04-25T10:09:15;10.60;36.80
8422;DHT22;4248;48.196;10.924;2023-04-25T10:11:41;10.50;36.30
8422;DHT22;4248;48.196;10.924;2023-04-25T10:14:07;10.80;36.00
8422;DHT22;4248;48.196;10.924;2023-04-25T10:16:33;11.00;35.80
8422;DHT22;4248;48.196;10.924;2023-04-25T10:18:59;11.20;35.30
8422;DHT22;4248;48.196;10.924;2023-04-25T10:21:27;11.60;34.30
8422;DHT22;4248;48.196;10.924;2023-04-25T10:23:54;11.90;33.60
8422;DHT22;4248;48.196;10.924;2023-04-25T10:26:20;12.40;32.70
8422;DHT22;4248;48.196;10.924;2023-04-25T10:29:03;12.80;32.10
8422;DHT22;4248;48.196;10.924;2023-04-25T10:31:30;13.20;31.50
8422;DHT22;4248;48.196;10.924;2023-04-25T10:33:56;13.40;31.00
8422;DHT22;4248;48.196;10.924;2023-04-25T10:36:23;13.50;30.80
8422;DHT22;4248;48.196;10.924;2023-04-25T10:38:52;13.30;31.10
8422;DHT22;4248;48.196;10.924;2023-04-25T10:41:19;13.30;31.60
8422;DHT22;4248;48.196;10.924;2023-04-25T10:43:46;13.10;30.90
8422;DHT22;4248;48.196;10.924;2023-04-25T10:46:25;12.60;31.30
8422;DHT22;4248;48.196;10.924;2023-04-25T10:48:52;12.60;31.80
8422;DHT22;4248;48.196;10.924;2023-04-25T10:56:38;12.50;31.70
8422;DHT22;4248;48.196;10.924;2023-04-25T10:59:16;12.50;32.10
8422;DHT22;4248;48.196;10.924;2023-04-25T11:01:51;11.90;33.30
8422;DHT22;4248;48.196;10.924;2023-04-25T11:04:32;11.30;34.90
8422;DHT22;4248;48.196;10.924;2023-04-25T11:07:19;10.80;36.10
8422;DHT22;4248;48.196;10.924;2023-04-25T11:09:49;10.30;38.70
8422;DHT22;4248;48.196;10.924;2023-04-25T11:12:14;9.90;40.50
8422;DHT22;4248;48.196;10.924;2023-04-25T11:14:41;9.50;43.50
8422;DHT22;4248;48.196;10.924;2023-04-25T11:17:07;9.50;43.30
8422;DHT22;4248;48.196;10.924;2023-04-25T11:19:33;9.50;43.10
8422;DHT22;4248;48.196;10.924;2023-04-25T11:22:00;9.50;43.00
8422;DHT22;4248;48.196;10.924;2023-04-25T11:24:30;9.50;42.70
8422;DHT22;4248;48.196;10.924;2023-04-25T11:26:58;9.70;42.30
8422;DHT22;4248;48.196;10.924;2023-04-25T11:29:26;9.90;42.00
8422;DHT22;4248;48.196;10.924;2023-04-25T11:31:52;10.00;40.60
8422;DHT22;4248;48.196;10.924;2023-04-25T11:34:18;10.40;40.10
8422;DHT22;4248;48.196;10.924;2023-04-25T11:36:45;10.60;39.60
8422;DHT22;4248;48.196;10.924;2023-04-25T11:39:11;10.70;39.30
8422;DHT22;4248;48.196;10.924;2023-04-25T11:41:38;10.80;39.10
8422;DHT22;4248;48.196;10.924;2023-04-25T11:44:04;11.00;39.40
8422;DHT22;4248;48.196;10.924;2023-04-25T11:46:30;11.10;39.40
8422;DHT22;4248;48.196;10.924;2023-04-25T11:48:55;11.40;38.90
8422;DHT22;4248;48.196;10.924;2023-04-25T11:51:21;11.40;38.90
8422;DHT22;4248;48.196;10.924;2023-04-25T11:53:47;11.50;38.80
8422;DHT22;4248;48.196;10.924;2023-04-25T11:56:13;11.50;38.90
8422;DHT22;4248;48.196;10.924;2023-04-25T11:58:55;11.50;39.00
8422;DHT22;4248;48.196;10.924;2023-04-25T12:01:29;11.50;39.80
8422;DHT22;4248;48.196;10.924;2023-04-25T12:03:55;11.30;39.60
8422;DHT22;4248;48.196;10.924;2023-04-25T12:06:23;11.50;39.80
8422;DHT22;4248;48.196;10.924;2023-04-25T12:09:02;11.10;40.70
8422;DHT22;4248;48.196;10.924;2023-04-25T12:11:32;10.90;41.10
8422;DHT22;4248;48.196;10.924;2023-04-25T12:14:03;10.90;42.90
8422;DHT22;4248;48.196;10.924;2023-04-25T12:16:29;11.00;43.00
8422;DHT22;4248;48.196;10.924;2023-04-25T12:18:56;11.30;42.10
8422;DHT22;4248;48.196;10.924;2023-04-25T12:21:22;11.20;41.90
8422;DHT22;4248;48.196;10.924;2023-04-25T12:23:48;10.90;43.00
8422;DHT22;4248;48.196;10.924;2023-04-25T12:26:13;10.30;44.80
8422;DHT22;4248;48.196;10.924;2023-04-25T12:28:39;10.10;45.20
8422;DHT22;4248;48.196;10.924;2023-04-25T12:31:06;10.30;45.20
8422;DHT22;4248;48.196;10.924;2023-04-25T12:33:33;10.40;44.40
8422;DHT22;4248;48.196;10.924;2023-04-25T12:36:00;10.40;43.80
8422;DHT22;4248;48.196;10.924;2023-04-25T12:38:30;10.40;43.70
8422;DHT22;4248;48.196;10.924;2023-04-25T12:40:57;10.80;43.00
8422;DHT22;4248;48.196;10.924;2023-04-25T12:43:23;11.20;42.20
8422;DHT22;4248;48.196;10.924;2023-04-25T12:45:53;11.10;41.20
8422;DHT22;4248;48.196;10.924;2023-04-25T12:48:19;11.30;41.20
8422;DHT22;4248;48.196;10.924;2023-04-25T12:50:46;11.40;40.90
8422;DHT22;4248;48.196;10.924;2023-04-25T12:53:16;11.30;40.20
8422;DHT22;4248;48.196;10.924;2023-04-25T12:55:41;11.40;40.20
8422;DHT22;4248;48.196;10.924;2023-04-25T12:58:07;11.30;40.50
8422;DHT22;4248;48.196;10.924;2023-04-25T13:00:33;11.20;40.90
8422;DHT22;4248;48.196;10.924;2023-04-25T13:02:58;11.00;42.30
8422;DHT22;4248;48.196;10.924;2023-04-25T13:05:25;10.80;43.20
8422;DHT22;4248;48.196;10.924;2023-04-25T13:07:51;10.60;44.60
8422;DHT22;4248;48.196;10.924;2023-04-25T13:10:17;10.40;45.00
8422;DHT22;4248;48.196;10.924;2023-04-25T13:12:43;10.50;44.70
8422;DHT22;4248;48.196;10.924;2023-04-25T13:15:09;10.30;44.70
8422;DHT22;4248;48.196;10.924;2023-04-25T13:17:37;10.30;44.80
8422;DHT22;4248;48.196;10.924;2023-04-25T13:20:07;10.30;44.70
8422;DHT22;4248;48.196;10.924;2023-04-25T13:22:34;10.10;45.60
8422;DHT22;4248;48.196;10.924;2023-04-25T13:25:02;10.10;45.70
8422;DHT22;4248;48.196;10.924;2023-04-25T13:27:28;10.10;45.30
8422;DHT22;4248;48.196;10.924;2023-04-25T13:29:54;10.10;45.40
8422;DHT22;4248;48.196;10.924;2023-04-25T13:32:20;10.10;45.50
8422;DHT22;4248;48.196;10.924;2023-04-25T13:34:45;10.30;45.20
8422;DHT22;4248;48.196;10.924;2023-04-25T13:37:11;10.30;46.40
8422;DHT22;4248;48.196;10.924;2023-04-25T13:39:36;10.20;46.60
8422;DHT22;4248;48.196;10.924;2023-04-25T13:42:02;10.30;46.80
8422;DHT22;4248;48.196;10.924;2023-04-25T13:44:28;10.10;46.70
8422;DHT22;4248;48.196;10.924;2023-04-25T13:46:54;10.10;47.80
8422;DHT22;4248;48.196;10.924;2023-04-25T13:49:19;10.20;48.20
8422;DHT22;4248;48.196;10.924;2023-04-25T13:51:45;10.20;48.30
8422;DHT22;4248;48.196;10.924;2023-04-25T13:54:11;10.20;48.80
8422;DHT22;4248;48.196;10.924;2023-04-25T13:56:36;10.00;48.90
8422;DHT22;4248;48.196;10.924;2023-04-25T13:59:02;10.00;49.20
8422;DHT22;4248;48.196;10.924;2023-04-25T14:01:28;10.10;49.20
8422;DHT22;4248;48.196;10.924;2023-04-25T14:03:55;10.20;49.40
8422;DHT22;4248;48.196;10.924;2023-04-25T14:06:21;10.20;50.10
8422;DHT22;4248;48.196;10.924;2023-04-25T14:08:49;10.20;49.80
8422;DHT22;4248;48.196;10.924;2023-04-25T14:11:15;10.40;49.70
8422;DHT22;4248;48.196;10.924;2023-04-25T14:13:43;10.30;49.60
8422;DHT22;4248;48.196;10.924;2023-04-25T14:16:09;10.20;50.50
8422;DHT22;4248;48.196;10.924;2023-04-25T14:18:35;10.00;52.80
8422;DHT22;4248;48.196;10.924;2023-04-25T14:21:00;9.90;52.50
8422;DHT22;4248;48.196;10.924;2023-04-25T14:23:26;9.80;52.70
8422;DHT22;4248;48.196;10.924;2023-04-25T14:25:52;9.80;53.00
8422;DHT22;4248;48.196;10.924;2023-04-25T14:28:18;9.80;53.70
8422;DHT22;4248;48.196;10.924;2023-04-25T14:30:43;10.00;53.80
8422;DHT22;4248;48.196;10.924;2023-04-25T14:33:09;10.10;51.80
8422;DHT22;4248;48.196;10.924;2023-04-25T14:35:35;10.10;51.70
8422;DHT22;4248;48.196;10.924;2023-04-25T14:38:00;10.40;52.00
8422;DHT22;4248;48.196;10.924;2023-04-25T14:40:26;10.30;51.80
8422;DHT22;4248;48.196;10.924;2023-04-25T14:42:52;10.20;51.10
8422;DHT22;4248;48.196;10.924;2023-04-25T14:45:18;10.20;50.90
8422;DHT22;4248;48.196;10.924;2023-04-25T14:47:43;10.10;51.70
8422;DHT22;4248;48.196;10.924;2023-04-25T14:50:09;9.90;52.50
8422;DHT22;4248;48.196;10.924;2023-04-25T14:52:35;9.80;52.40
8422;DHT22;4248;48.196;10.924;2023-04-25T14:55:01;10.00;51.00
8422;DHT22;4248;48.196;10.924;2023-04-25T14:57:31;10.20;50.30
8422;DHT22;4248;48.196;10.924;2023-04-25T14:59:57;10.20;50.00
8422;DHT22;4248;48.196;10.924;2023-04-25T15:02:24;10.30;49.50
8422;DHT22;4248;48.196;10.924;2023-04-25T15:04:49;10.40;50.00
8422;DHT22;4248;48.196;10.924;2023-04-25T15:07:15;10.40;50.00
8422;DHT22;4248;48.196;10.924;2023-04-25T15:09:41;10.40;49.70
8422;DHT22;4248;48.196;10.924;2023-04-25T15:12:07;10.30;50.00
8422;DHT22;4248;48.196;10.924;2023-04-25T15:14:33;10.30;50.20
8422;DHT22;4248;48.196;10.924;2023-04-25T15:16:59;10.30;49.40
8422;DHT22;4248;48.196;10.924;2023-04-25T15:19:25;10.40;48.10
8422;DHT22;4248;48.196;10.924;2023-04-25T15:21:51;10.40;47.10
8422;DHT22;4248;48.196;10.924;2023-04-25T15:24:17;10.60;46.60
8422;DHT22;4248;48.196;10.924;2023-04-25T15:26:43;10.80;46.10
8422;DHT22;4248;48.196;10.924;2023-04-25T15:29:10;11.00;45.50
8422;DHT22;4248;48.196;10.924;2023-04-25T15:31:37;10.80;45.50
8422;DHT22;4248;48.196;10.924;2023-04-25T15:34:03;10.50;45.00
8422;DHT22;4248;48.196;10.924;2023-04-25T15:36:29;10.10;45.50
8422;DHT22;4248;48.196;10.924;2023-04-25T15:38:54;9.80;47.20
8422;DHT22;4248;48.196;10.924;2023-04-25T15:41:21;9.70;47.50
8422;DHT22;4248;48.196;10.924;2023-04-25T15:43:47;9.90;47.30
8422;DHT22;4248;48.196;10.924;2023-04-25T15:46:13;10.20;46.00
8422;DHT22;4248;48.196;10.924;2023-04-25T15:48:39;10.40;45.60
8422;DHT22;4248;48.196;10.924;2023-04-25T15:51:04;10.40;45.80
8422;DHT22;4248;48.196;10.924;2023-04-25T15:53:31;10.50;45.80
8422;DHT22;4248;48.196;10.924;2023-04-25T15:55:56;10.40;46.50
8422;DHT22;4248;48.196;10.924;2023-04-25T15:58:22;10.40;46.50